sensor_id;sensor_type;location;lat;lon;timestamp;temperature;humidity
13091;DHT22;6611;52.604;13.438;2023-03-23T00:02:47;12.59;67.91
13091;DHT22;6611;52.604;13.438;2023-03-23T00:07:48;12.55;68.38
13091;DHT22;6611;52.604;13.438;2023-03-23T00:12:53;12.42;68.45
13091;DHT22;6611;52.604;13.438;2023-03-23T00:17:57;12.38;68.68
13091;DHT22;6611;52.604;13.438;2023-03-23T00:23:03;12.27;69.22
13091;DHT22;6611;52.604;13.438;2023-03-23T00:28:06;12.16;70.23
13091;DHT22;6611;52.604;13.438;2023-03-23T00:33:08;12.13;69.61
13091;DHT22;6611;52.604;13.438;2023-03-23T00:38:12;12.20;69.41
13091;DHT22;6611;52.604;13.438;2023-03-23T00:43:16;12.14;69.69
13091;DHT22;6611;52.604;13.438;2023-03-23T00:48:18;11.95;70.62
13091;DHT22;6611;52.604;13.438;2023-03-23T00:53:20;11.93;70.21
13091;DHT22;6611;52.604;13.438;2023-03-23T00:58:24;11.82;71.11
13091;DHT22;6611;52.604;13.438;2023-03-23T01:03:26;11.87;70.19
13091;DHT22;6611;52.604;13.438;2023-03-23T01:08:28;11.80;71.03
13091;DHT22;6611;52.604;13.438;2023-03-23T01:13:33;11.83;70.79
13091;DHT22;6611;52.604;13.438;2023-03-23T01:18:35;11.72;70.67
13091;DHT22;6611;52.604;13.438;2023-03-23T01:23:37;11.73;70.98
13091;DHT22;6611;52.604;13.438;2023-03-23T01:28:41;11.66;70.87
13091;DHT22;6611;52.604;13.438;2023-03-23T01:33:43;11.66;71.35
13091;DHT22;6611;52.604;13.438;2023-03-23T01:38:47;11.59;71.29
13091;DHT22;6611;52.604;13.438;2023-03-23T01:43:59;11.63;71.29
13091;DHT22;6611;52.604;13.438;2023-03-23T01:49:07;11.59;71.79
13091;DHT22;6611;52.604;13.438;2023-03-23T01:54:12;11.66;70.97
13091;DHT22;6611;52.604;13.438;2023-03-23T01:59:16;11.72;70.70
13091;DHT22;6611;52.604;13.438;2023-03-23T02:04:18;11.62;71.63
13091;DHT22;6611;52.604;13.438;2023-03-23T02:09:22;11.73;70.78
13091;DHT22;6611;52.604;13.438;2023-03-23T02:14:26;11.76;70.54
13091;DHT22;6611;52.604;13.438;2023-03-23T02:19:51;11.82;70.77
13091;DHT22;6611;52.604;13.438;2023-03-23T02:24:59;11.86;70.06
13091;DHT22;6611;52.604;13.438;2023-03-23T02:30:25;11.95;69.84
13091;DHT22;6611;52.604;13.438;2023-03-23T02:35:34;11.95;69.65
13091;DHT22;6611;52.604;13.438;2023-03-23T02:40:39;12.08;69.26
13091;DHT22;6611;52.604;13.438;2023-03-23T02:45:44;12.17;68.91
13091;DHT22;6611;52.604;13.438;2023-03-23T02:50:49;12.22;68.90
13091;DHT22;6611;52.604;13.438;2023-03-23T02:55:53;12.28;70.24
13091;DHT22;6611;52.604;13.438;2023-03-23T03:00:56;12.25;71.68
13091;DHT22;6611;52.604;13.438;2023-03-23T03:06:06;12.14;72.75
13091;DHT22;6611;52.604;13.438;2023-03-23T03:11:12;12.08;71.98
13091;DHT22;6611;52.604;13.438;2023-03-23T03:16:22;12.13;71.88
13091;DHT22;6611;52.604;13.438;2023-03-23T03:21:30;12.14;71.43
13091;DHT22;6611;52.604;13.438;2023-03-23T03:26:33;12.21;71.62
13091;DHT22;6611;52.604;13.438;2023-03-23T03:31:38;12.22;71.80
13091;DHT22;6611;52.604;13.438;2023-03-23T03:36:41;12.25;71.57
13091;DHT22;6611;52.604;13.438;2023-03-23T03:41:43;12.20;73.84
13091;DHT22;6611;52.604;13.438;2023-03-23T03:46:45;12.11;75.18
13091;DHT22;6611;52.604;13.438;2023-03-23T03:51:48;11.95;77.16
13091;DHT22;6611;52.604;13.438;2023-03-23T03:56:50;11.91;75.50
13091;DHT22;6611;52.604;13.438;2023-03-23T04:01:52;11.73;77.62
13091;DHT22;6611;52.604;13.438;2023-03-23T04:06:56;11.69;76.73
13091;DHT22;6611;52.604;13.438;2023-03-23T04:11:58;11.62;77.72
13091;DHT22;6611;52.604;13.438;2023-03-23T04:17:00;11.52;78.83
13091;DHT22;6611;52.604;13.438;2023-03-23T04:22:03;11.52;78.65
13091;DHT22;6611;52.604;13.438;2023-03-23T04:27:05;11.55;78.22
13091;DHT22;6611;52.604;13.438;2023-03-23T04:32:07;11.38;80.46
13091;DHT22;6611;52.604;13.438;2023-03-23T04:37:10;11.31;82.07
13091;DHT22;6611;52.604;13.438;2023-03-23T04:42:13;11.24;82.41
13091;DHT22;6611;52.604;13.438;2023-03-23T04:47:15;11.20;83.11
13091;DHT22;6611;52.604;13.438;2023-03-23T04:52:19;11.11;83.39
13091;DHT22;6611;52.604;13.438;2023-03-23T04:57:21;11.07;83.27
13091;DHT22;6611;52.604;13.438;2023-03-23T05:02:23;11.08;83.31
13091;DHT22;6611;52.604;13.438;2023-03-23T05:07:26;11.10;83.21
13091;DHT22;6611;52.604;13.438;2023-03-23T05:12:28;11.06;84.28
13091;DHT22;6611;52.604;13.438;2023-03-23T05:17:30;11.00;84.90
13091;DHT22;6611;52.604;13.438;2023-03-23T05:22:34;10.94;85.08
13091;DHT22;6611;52.604;13.438;2023-03-23T05:27:37;10.87;85.36
13091;DHT22;6611;52.604;13.438;2023-03-23T05:32:38;10.80;85.85
13091;DHT22;6611;52.604;13.438;2023-03-23T05:37:41;10.84;85.89
13091;DHT22;6611;52.604;13.438;2023-03-23T05:42:44;10.81;86.12
13091;DHT22;6611;52.604;13.438;2023-03-23T05:47:47;10.89;85.62
13091;DHT22;6611;52.604;13.438;2023-03-23T05:52:50;10.84;86.14
13091;DHT22;6611;52.604;13.438;2023-03-23T05:57:51;10.86;86.18
13091;DHT22;6611;52.604;13.438;2023-03-23T06:02:54;10.94;86.01
13091;DHT22;6611;52.604;13.438;2023-03-23T06:07:58;10.86;87.04
13091;DHT22;6611;52.604;13.438;2023-03-23T06:12:59;10.84;87.19
13091;DHT22;6611;52.604;13.438;2023-03-23T06:18:02;10.79;87.40
13091;DHT22;6611;52.604;13.438;2023-03-23T06:23:06;10.84;87.29
13091;DHT22;6611;52.604;13.438;2023-03-23T06:28:09;10.81;88.13
13091;DHT22;6611;52.604;13.438;2023-03-23T06:33:11;11.01;88.18
13091;DHT22;6611;52.604;13.438;2023-03-23T06:38:14;10.99;87.90
13091;DHT22;6611;52.604;13.438;2023-03-23T06:43:16;11.01;87.78
13091;DHT22;6611;52.604;13.438;2023-03-23T06:48:18;10.94;88.35
13091;DHT22;6611;52.604;13.438;2023-03-23T06:53:21;10.94;88.03
13091;DHT22;6611;52.604;13.438;2023-03-23T06:58:22;10.86;88.85
13091;DHT22;6611;52.604;13.438;2023-03-23T07:03:25;10.87;89.06
13091;DHT22;6611;52.604;13.438;2023-03-23T07:08:29;10.94;88.67
13091;DHT22;6611;52.604;13.438;2023-03-23T07:13:31;10.94;88.98
13091;DHT22;6611;52.604;13.438;2023-03-23T07:18:33;10.89;89.46
13091;DHT22;6611;52.604;13.438;2023-03-23T07:23:36;10.94;89.36
13091;DHT22;6611;52.604;13.438;2023-03-23T07:28:37;10.99;89.80
13091;DHT22;6611;52.604;13.438;2023-03-23T07:33:40;11.08;89.37
13091;DHT22;6611;52.604;13.438;2023-03-23T07:38:43;11.15;89.06
13091;DHT22;6611;52.604;13.438;2023-03-23T07:43:45;11.08;89.51
13091;DHT22;6611;52.604;13.438;2023-03-23T07:48:46;11.17;89.50
13091;DHT22;6611;52.604;13.438;2023-03-23T07:53:51;11.22;89.01
13091;DHT22;6611;52.604;13.438;2023-03-23T07:58:52;11.35;89.06
13091;DHT22;6611;52.604;13.438;2023-03-23T08:03:54;11.46;88.96
13091;DHT22;6611;52.604;13.438;2023-03-23T08:08:59;11.45;89.00
13091;DHT22;6611;52.604;13.438;2023-03-23T08:14:07;11.56;88.44
13091;DHT22;6611;52.604;13.438;2023-03-23T08:19:08;11.65;88.13
13091;DHT22;6611;52.604;13.438;2023-03-23T08:24:11;11.62;88.26
13091;DHT22;6611;52.604;13.438;2023-03-23T08:29:13;11.66;87.32
13091;DHT22;6611;52.604;13.438;2023-03-23T08:34:16;11.61;87.45
13091;DHT22;6611;52.604;13.438;2023-03-23T08:39:19;11.56;88.27
13091;DHT22;6611;52.604;13.438;2023-03-23T08:44:23;11.67;86.88
13091;DHT22;6611;52.604;13.438;2023-03-23T08:49:24;11.80;86.92
13091;DHT22;6611;52.604;13.438;2023-03-23T08:54:28;11.95;86.26
13091;DHT22;6611;52.604;13.438;2023-03-23T08:59:31;12.05;84.88
13091;DHT22;6611;52.604;13.438;2023-03-23T09:04:33;12.05;85.89
13091;DHT22;6611;52.604;13.438;2023-03-23T09:09:36;12.24;84.75
13091;DHT22;6611;52.604;13.438;2023-03-23T09:14:39;12.22;85.42
13091;DHT22;6611;52.604;13.438;2023-03-23T09:19:41;12.16;85.19
13091;DHT22;6611;52.604;13.438;2023-03-23T09:24:44;12.18;85.09
13091;DHT22;6611;52.604;13.438;2023-03-23T09:29:46;12.35;84.41
13091;DHT22;6611;52.604;13.438;2023-03-23T09:34:49;12.56;83.78
13091;DHT22;6611;52.604;13.438;2023-03-23T09:39:53;12.97;83.63
13091;DHT22;6611;52.604;13.438;2023-03-23T09:45:06;13.28;81.80
13091;DHT22;6611;52.604;13.438;2023-03-23T09:50:14;13.43;81.00
13091;DHT22;6611;52.604;13.438;2023-03-23T09:55:19;13.56;80.67
13091;DHT22;6611;52.604;13.438;2023-03-23T10:00:25;13.74;80.31
13091;DHT22;6611;52.604;13.438;2023-03-23T10:05:31;13.73;78.22
13091;DHT22;6611;52.604;13.438;2023-03-23T10:10:47;13.90;77.78
13091;DHT22;6611;52.604;13.438;2023-03-23T10:15:50;13.80;78.46
13091;DHT22;6611;52.604;13.438;2023-03-23T10:20:54;13.81;77.31
13091;DHT22;6611;52.604;13.438;2023-03-23T10:26:04;13.80;76.62
13091;DHT22;6611;52.604;13.438;2023-03-23T10:31:13;13.90;75.83
13091;DHT22;6611;52.604;13.438;2023-03-23T10:36:19;14.11;76.18
13091;DHT22;6611;52.604;13.438;2023-03-23T10:41:25;14.33;74.95
13091;DHT22;6611;52.604;13.438;2023-03-23T10:46:33;14.39;74.38
13091;DHT22;6611;52.604;13.438;2023-03-23T10:51:42;14.53;73.76
13091;DHT22;6611;52.604;13.438;2023-03-23T10:56:46;14.38;72.49
13091;DHT22;6611;52.604;13.438;2023-03-23T11:01:54;14.22;74.94
13091;DHT22;6611;52.604;13.438;2023-03-23T11:06:59;14.36;73.51
13091;DHT22;6611;52.604;13.438;2023-03-23T11:12:03;14.39;72.46
13091;DHT22;6611;52.604;13.438;2023-03-23T11:17:20;14.30;72.12
13091;DHT22;6611;52.604;13.438;2023-03-23T11:22:26;14.36;72.01
13091;DHT22;6611;52.604;13.438;2023-03-23T11:27:30;14.38;73.20
13091;DHT22;6611;52.604;13.438;2023-03-23T11:32:32;14.50;72.30
13091;DHT22;6611;52.604;13.438;2023-03-23T11:37:35;14.76;70.62
13091;DHT22;6611;52.604;13.438;2023-03-23T11:42:43;14.88;70.00
13091;DHT22;6611;52.604;13.438;2023-03-23T11:47:53;14.98;70.03
13091;DHT22;6611;52.604;13.438;2023-03-23T11:53:02;15.04;69.41
13091;DHT22;6611;52.604;13.438;2023-03-23T11:58:13;15.24;70.14
13091;DHT22;6611;52.604;13.438;2023-03-23T12:03:16;15.33;70.33
13091;DHT22;6611;52.604;13.438;2023-03-23T12:08:33;15.21;69.53
13091;DHT22;6611;52.604;13.438;2023-03-23T12:13:46;15.04;69.10
13091;DHT22;6611;52.604;13.438;2023-03-23T12:18:59;15.05;68.82
13091;DHT22;6611;52.604;13.438;2023-03-23T12:24:10;15.08;68.77
13091;DHT22;6611;52.604;13.438;2023-03-23T12:29:30;15.11;68.51
13091;DHT22;6611;52.604;13.438;2023-03-23T12:34:40;15.04;68.40
13091;DHT22;6611;52.604;13.438;2023-03-23T12:40:06;15.16;68.56
13091;DHT22;6611;52.604;13.438;2023-03-23T12:45:19;15.18;66.91
13091;DHT22;6611;52.604;13.438;2023-03-23T12:50:28;15.08;69.06
13091;DHT22;6611;52.604;13.438;2023-03-23T12:55:35;15.22;67.91
13091;DHT22;6611;52.604;13.438;2023-03-23T13:00:54;15.90;66.75
13091;DHT22;6611;52.604;13.438;2023-03-23T13:06:04;16.09;64.59
13091;DHT22;6611;52.604;13.438;2023-03-23T13:11:12;16.05;64.07
13091;DHT22;6611;52.604;13.438;2023-03-23T13:16:24;16.52;64.56
13091;DHT22;6611;52.604;13.438;2023-03-23T13:21:30;17.15;60.36
13091;DHT22;6611;52.604;13.438;2023-03-23T13:26:37;17.35;59.52
13091;DHT22;6611;52.604;13.438;2023-03-23T13:31:42;17.29;59.38
13091;DHT22;6611;52.604;13.438;2023-03-23T13:36:51;17.63;59.92
13091;DHT22;6611;52.604;13.438;2023-03-23T13:42:03;17.35;59.10
13091;DHT22;6611;52.604;13.438;2023-03-23T13:47:14;17.15;58.88
13091;DHT22;6611;52.604;13.438;2023-03-23T13:52:22;16.80;59.22
13091;DHT22;6611;52.604;13.438;2023-03-23T13:57:34;17.40;59.06
13091;DHT22;6611;52.604;13.438;2023-03-23T14:02:40;17.54;56.83
13091;DHT22;6611;52.604;13.438;2023-03-23T14:07:56;17.00;56.01
13091;DHT22;6611;52.604;13.438;2023-03-23T14:13:00;16.67;57.66
13091;DHT22;6611;52.604;13.438;2023-03-23T14:18:04;17.04;56.51
13091;DHT22;6611;52.604;13.438;2023-03-23T14:23:15;16.81;56.12
13091;DHT22;6611;52.604;13.438;2023-03-23T14:28:18;16.53;55.88
13091;DHT22;6611;52.604;13.438;2023-03-23T14:33:25;16.30;58.28
13091;DHT22;6611;52.604;13.438;2023-03-23T14:38:27;16.06;57.89
13091;DHT22;6611;52.604;13.438;2023-03-23T14:43:33;15.88;58.71
13091;DHT22;6611;52.604;13.438;2023-03-23T14:48:38;15.95;58.45
13091;DHT22;6611;52.604;13.438;2023-03-23T14:53:40;16.01;59.81
13091;DHT22;6611;52.604;13.438;2023-03-23T14:58:46;16.09;59.56
13091;DHT22;6611;52.604;13.438;2023-03-23T15:03:56;16.25;58.59
13091;DHT22;6611;52.604;13.438;2023-03-23T15:09:04;16.21;57.83
13091;DHT22;6611;52.604;13.438;2023-03-23T15:14:10;16.18;57.35
13091;DHT22;6611;52.604;13.438;2023-03-23T15:19:16;16.70;55.96
13091;DHT22;6611;52.604;13.438;2023-03-23T15:24:26;17.12;54.17
13091;DHT22;6611;52.604;13.438;2023-03-23T15:29:28;17.02;55.25
13091;DHT22;6611;52.604;13.438;2023-03-23T15:34:33;17.01;55.79
13091;DHT22;6611;52.604;13.438;2023-03-23T15:39:40;16.95;56.68
13091;DHT22;6611;52.604;13.438;2023-03-23T15:44:43;17.05;54.86
13091;DHT22;6611;52.604;13.438;2023-03-23T15:49:46;16.85;55.78
13091;DHT22;6611;52.604;13.438;2023-03-23T15:54:49;16.56;56.65
13091;DHT22;6611;52.604;13.438;2023-03-23T15:59:51;16.34;57.82
13091;DHT22;6611;52.604;13.438;2023-03-23T16:04:54;16.21;58.35
13091;DHT22;6611;52.604;13.438;2023-03-23T16:09:56;15.95;60.17
13091;DHT22;6611;52.604;13.438;2023-03-23T16:14:57;15.93;58.26
13091;DHT22;6611;52.604;13.438;2023-03-23T16:20:00;15.86;59.32
13091;DHT22;6611;52.604;13.438;2023-03-23T16:25:03;15.76;59.54
13091;DHT22;6611;52.604;13.438;2023-03-23T16:30:13;15.67;62.17
13091;DHT22;6611;52.604;13.438;2023-03-23T16:35:17;15.24;66.71
13091;DHT22;6611;52.604;13.438;2023-03-23T16:40:20;14.80;68.28
13091;DHT22;6611;52.604;13.438;2023-03-23T16:45:22;14.72;69.33
13091;DHT22;6611;52.604;13.438;2023-03-23T16:50:26;14.49;70.40
13091;DHT22;6611;52.604;13.438;2023-03-23T16:55:29;14.28;71.51
13091;DHT22;6611;52.604;13.438;2023-03-23T17:00:32;14.02;72.43
13091;DHT22;6611;52.604;13.438;2023-03-23T17:05:36;13.85;73.27
13091;DHT22;6611;52.604;13.438;2023-03-23T17:10:39;13.69;74.22
13091;DHT22;6611;52.604;13.438;2023-03-23T17:15:42;13.71;74.25
13091;DHT22;6611;52.604;13.438;2023-03-23T17:20:45;13.62;74.86
13091;DHT22;6611;52.604;13.438;2023-03-23T17:25:47;13.50;75.53
13091;DHT22;6611;52.604;13.438;2023-03-23T17:30:50;13.45;75.59
13091;DHT22;6611;52.604;13.438;2023-03-23T17:35:53;13.35;76.36
13091;DHT22;6611;52.604;13.438;2023-03-23T17:40:56;13.34;76.82
13091;DHT22;6611;52.604;13.438;2023-03-23T17:45:58;13.31;76.80
13091;DHT22;6611;52.604;13.438;2023-03-23T17:51:01;13.15;77.42
13091;DHT22;6611;52.604;13.438;2023-03-23T17:56:04;12.91;77.78
13091;DHT22;6611;52.604;13.438;2023-03-23T18:01:06;12.88;76.90
13091;DHT22;6611;52.604;13.438;2023-03-23T18:06:09;12.87;76.35
13091;DHT22;6611;52.604;13.438;2023-03-23T18:11:12;12.79;76.83
13091;DHT22;6611;52.604;13.438;2023-03-23T18:16:13;12.76;77.03
13091;DHT22;6611;52.604;13.438;2023-03-23T18:21:17;12.69;77.64
13091;DHT22;6611;52.604;13.438;2023-03-23T18:26:19;12.70;76.73
13091;DHT22;6611;52.604;13.438;2023-03-23T18:31:21;12.76;76.67
13091;DHT22;6611;52.604;13.438;2023-03-23T18:36:25;12.67;77.11
13091;DHT22;6611;52.604;13.438;2023-03-23T18:41:27;12.62;77.12
13091;DHT22;6611;52.604;13.438;2023-03-23T18:46:29;12.62;77.42
13091;DHT22;6611;52.604;13.438;2023-03-23T18:51:32;12.59;77.92
13091;DHT22;6611;52.604;13.438;2023-03-23T18:56:34;12.64;78.07
13091;DHT22;6611;52.604;13.438;2023-03-23T19:01:35;12.49;80.44
13091;DHT22;6611;52.604;13.438;2023-03-23T19:06:38;12.31;81.60
13091;DHT22;6611;52.604;13.438;2023-03-23T19:11:40;12.25;82.45
13091;DHT22;6611;52.604;13.438;2023-03-23T19:16:42;12.21;82.91
13091;DHT22;6611;52.604;13.438;2023-03-23T19:21:45;12.25;83.25
13091;DHT22;6611;52.604;13.438;2023-03-23T19:26:46;12.27;82.65
13091;DHT22;6611;52.604;13.438;2023-03-23T19:31:48;12.24;82.92
13091;DHT22;6611;52.604;13.438;2023-03-23T19:36:51;12.22;83.12
13091;DHT22;6611;52.604;13.438;2023-03-23T19:41:53;12.20;83.22
13091;DHT22;6611;52.604;13.438;2023-03-23T19:46:55;12.22;82.81
13091;DHT22;6611;52.604;13.438;2023-03-23T19:51:58;12.22;82.80
13091;DHT22;6611;52.604;13.438;2023-03-23T19:57:00;12.24;82.78
13091;DHT22;6611;52.604;13.438;2023-03-23T20:02:02;12.25;82.90
13091;DHT22;6611;52.604;13.438;2023-03-23T20:07:05;12.29;82.60
13091;DHT22;6611;52.604;13.438;2023-03-23T20:12:07;12.27;82.56
13091;DHT22;6611;52.604;13.438;2023-03-23T20:17:09;12.32;82.62
13091;DHT22;6611;52.604;13.438;2023-03-23T20:22:12;12.42;82.18
13091;DHT22;6611;52.604;13.438;2023-03-23T20:27:15;12.39;82.47
13091;DHT22;6611;52.604;13.438;2023-03-23T20:32:16;12.34;83.03
13091;DHT22;6611;52.604;13.438;2023-03-23T20:37:21;12.38;83.23
13091;DHT22;6611;52.604;13.438;2023-03-23T20:42:23;12.31;83.32
13091;DHT22;6611;52.604;13.438;2023-03-23T20:47:25;12.27;83.74
13091;DHT22;6611;52.604;13.438;2023-03-23T20:52:29;12.29;83.66
13091;DHT22;6611;52.604;13.438;2023-03-23T20:57:31;12.25;83.67
13091;DHT22;6611;52.604;13.438;2023-03-23T21:02:33;12.21;84.51
13091;DHT22;6611;52.604;13.438;2023-03-23T21:07:36;12.20;85.75
13091;DHT22;6611;52.604;13.438;2023-03-23T21:12:38;12.07;86.36
13091;DHT22;6611;52.604;13.438;2023-03-23T21:17:40;12.02;86.87
13091;DHT22;6611;52.604;13.438;2023-03-23T21:22:43;12.00;87.22
13091;DHT22;6611;52.604;13.438;2023-03-23T21:27:45;11.91;87.56
13091;DHT22;6611;52.604;13.438;2023-03-23T21:32:47;11.83;87.86
13091;DHT22;6611;52.604;13.438;2023-03-23T21:37:50;11.80;87.66
13091;DHT22;6611;52.604;13.438;2023-03-23T21:42:53;11.66;87.86
13091;DHT22;6611;52.604;13.438;2023-03-23T21:47:54;11.58;87.63
13091;DHT22;6611;52.604;13.438;2023-03-23T21:52:59;11.58;87.11
13091;DHT22;6611;52.604;13.438;2023-03-23T21:58:01;11.43;86.97
13091;DHT22;6611;52.604;13.438;2023-03-23T22:03:05;11.24;87.20
13091;DHT22;6611;52.604;13.438;2023-03-23T22:08:09;11.17;87.49
13091;DHT22;6611;52.604;13.438;2023-03-23T22:13:11;11.04;87.88
13091;DHT22;6611;52.604;13.438;2023-03-23T22:18:13;11.01;87.60
13091;DHT22;6611;52.604;13.438;2023-03-23T22:23:17;11.01;87.86
13091;DHT22;6611;52.604;13.438;2023-03-23T22:28:19;10.96;87.78
13091;DHT22;6611;52.604;13.438;2023-03-23T22:33:22;10.94;87.94
13091;DHT22;6611;52.604;13.438;2023-03-23T22:38:25;10.77;87.91
13091;DHT22;6611;52.604;13.438;2023-03-23T22:43:27;10.79;87.15
13091;DHT22;6611;52.604;13.438;2023-03-23T22:48:29;10.68;87.68
13091;DHT22;6611;52.604;13.438;2023-03-23T22:53:32;10.60;87.77
13091;DHT22;6611;52.604;13.438;2023-03-23T22:58:34;10.56;87.41
13091;DHT22;6611;52.604;13.438;2023-03-23T23:03:36;10.58;86.87
13091;DHT22;6611;52.604;13.438;2023-03-23T23:08:40;10.42;87.14
13091;DHT22;6611;52.604;13.438;2023-03-23T23:13:42;10.34;87.85
13091;DHT22;6611;52.604;13.438;2023-03-23T23:18:45;10.30;87.51
13091;DHT22;6611;52.604;13.438;2023-03-23T23:23:49;10.21;87.50
13091;DHT22;6611;52.604;13.438;2023-03-23T23:28:51;10.15;87.61
13091;DHT22;6611;52.604;13.438;2023-03-23T23:33:54;10.10;87.94
13091;DHT22;6611;52.604;13.438;2023-03-23T23:38:58;10.07;88.21
13091;DHT22;6611;52.604;13.438;2023-03-23T23:44:01;10.11;88.06
13091;DHT22;6611;52.604;13.438;2023-03-23T23:49:03;10.11;87.80
13091;DHT22;6611;52.604;13.438;2023-03-23T23:54:08;10.13;88.17
13091;DHT22;6611;52.604;13.438;2023-03-23T23:59:10;10.07;88.14
